Time;durP1;ratioP1;P1;durP2;ratioP2;P2;SDS_P1;SDS_P2;PMS_P1;PMS_P2;Temp;Humidity;BMP_temperature;BMP_pressure;BME280_temperature;BME280_humidity;BME280_pressure;Samples;Min_cycle;Max_cycle;Signal;HPM_P1;HPM_P2
2023/05/14 00:00:46;;;;;;;;;;;;;;;16.47;65.60;100726.41;5063325;28;19913;-82
2023/05/14 00:03:38;;;;;;;;;;;;;;;16.45;65.74;100715.00;5060704;28;19916;-82
2023/05/14 00:06:30;;;;;;;;;;;;;;;16.42;65.07;100718.44;5064306;28;19908;-82
2023/05/14 00:09:22;;;;;;;;;;;;;;;16.40;64.87;100720.75;5072493;28;19912;-81
2023/05/14 00:12:14;;;;;;;;;;;;;;;16.45;66.13;100717.75;5057643;28;19912;-80
2023/05/14 00:15:02;;;;;;;;;;;;;;;16.46;67.24;100711.06;5064464;28;19912;-82
2023/05/14 00:17:52;;;;;;;;;;;;;;;16.46;66.91;100711.06;5057580;28;20287;-81
2023/05/14 00:20:44;;;;;;;;;;;;;;;16.45;67.19;100696.59;5051541;28;19912;-81
2023/05/14 00:23:36;;;;;;;;;;;;;;;16.45;67.17;100702.06;5058161;28;19916;-81
2023/05/14 00:26:26;;;;;;;;;;;;;;;16.38;66.03;100701.09;5064745;28;19991;-84
2023/05/14 00:29:18;;;;;;;;;;;;;;;16.36;65.99;100686.91;5064344;28;19912;-81
2023/05/14 00:32:10;;;;;;;;;;;;;;;16.38;66.96;100688.16;5049665;28;19916;-81
2023/05/14 00:35:03;;;;;;;;;;;;;;;16.43;67.68;100687.91;5037656;28;19913;-82
2023/05/14 00:37:52;;;;;;;;;;;;;;;16.44;67.43;100692.25;5040683;28;19912;-81
2023/05/14 00:40:44;;;;;;;;;;;;;;;16.41;67.04;100679.22;5050228;28;19912;-81
2023/05/14 00:43:36;;;;;;;;;;;;;;;16.47;67.54;100682.47;5046230;28;20391;-81
2023/05/14 00:46:26;;;;;;;;;;;;;;;16.42;67.49;100680.00;5060110;28;19912;-80
2023/05/14 00:49:16;;;;;;;;;;;;;;;16.42;68.00;100669.81;5044305;28;19912;-80
2023/05/14 00:52:08;;;;;;;;;;;;;;;16.39;67.29;100669.75;5047019;28;20379;-81
2023/05/14 00:55:00;;;;;;;;;;;;;;;16.42;67.74;100669.81;5071249;28;19912;-81
2023/05/14 00:57:53;;;;;;;;;;;;;;;16.43;68.15;100659.66;5083726;28;19912;-80
2023/05/14 01:00:45;;;;;;;;;;;;;;;16.43;68.36;100660.44;5081662;28;20299;-81
2023/05/14 01:03:36;;;;;;;;;;;;;;;16.43;68.40;100657.69;5084086;28;19919;-81
2023/05/14 01:06:35;;;;;;;;;;;;;;;16.45;68.45;100657.34;5069200;28;19912;-82
2023/05/14 01:09:33;;;;;;;;;;;;;;;16.43;68.48;100652.22;5063140;28;20356;-81
2023/05/14 01:12:26;;;;;;;;;;;;;;;16.45;68.71;100640.88;5053065;28;19912;-82
2023/05/14 01:15:21;;;;;;;;;;;;;;;16.46;69.04;100642.44;5066764;28;19913;-81
2023/05/14 01:18:12;;;;;;;;;;;;;;;16.50;69.25;100655.13;5052424;28;19912;-81
2023/05/14 01:21:04;;;;;;;;;;;;;;;16.49;69.38;100641.75;5066818;28;20287;-81
2023/05/14 01:23:53;;;;;;;;;;;;;;;16.49;69.33;100645.31;5063040;28;19916;-79
2023/05/14 01:26:45;;;;;;;;;;;;;;;16.46;69.22;100635.03;5060241;28;19912;-81
2023/05/14 01:29:39;;;;;;;;;;;;;;;16.44;69.14;100634.59;5064272;28;19912;-81
2023/05/14 01:32:31;;;;;;;;;;;;;;;16.43;69.11;100630.25;5062454;28;20376;-81
2023/05/14 01:35:23;;;;;;;;;;;;;;;16.43;69.07;100633.00;5045892;28;19936;-81
2023/05/14 01:38:13;;;;;;;;;;;;;;;16.42;68.95;100625.91;5063232;28;19917;-80
2023/05/14 01:41:06;;;;;;;;;;;;;;;16.40;68.98;100628.22;5041321;28;19912;-80
2023/05/14 01:43:58;;;;;;;;;;;;;;;16.39;68.86;100618.41;5056293;28;20368;-82
2023/05/14 01:46:47;;;;;;;;;;;;;;;16.37;68.59;100620.69;5047695;28;19913;-81
2023/05/14 01:49:36;;;;;;;;;;;;;;;16.35;68.25;100622.22;5068439;28;19938;-81
2023/05/14 01:52:27;;;;;;;;;;;;;;;16.31;67.48;100615.81;5074898;28;20291;-81
2023/05/14 01:55:19;;;;;;;;;;;;;;;16.32;67.25;100614.69;5074217;28;19913;-82
2023/05/14 01:58:11;;;;;;;;;;;;;;;16.32;67.33;100614.69;5065317;28;20395;-82
2023/05/14 02:01:03;;;;;;;;;;;;;;;16.34;67.19;100606.91;5065967;28;19912;-81
2023/05/14 02:03:55;;;;;;;;;;;;;;;16.32;67.06;100604.50;5083546;22;19920;-82
2023/05/14 02:06:45;;;;;;;;;;;;;;;16.32;66.71;100598.22;5086422;28;19924;-82
2023/05/14 02:09:32;;;;;;;;;;;;;;;16.33;66.61;100602.56;5102275;28;19912;-81
2023/05/14 02:12:24;;;;;;;;;;;;;;;16.32;66.41;100600.97;5078015;28;19912;-81
2023/05/14 02:15:16;;;;;;;;;;;;;;;16.29;66.01;100602.47;5071598;28;19912;-82
2023/05/14 02:18:06;;;;;;;;;;;;;;;16.27;65.71;100597.34;5072544;28;19913;-81
2023/05/14 02:20:58;;;;;;;;;;;;;;;16.22;65.45;100594.88;5095772;28;20319;-82
2023/05/14 02:23:50;;;;;;;;;;;;;;;16.17;65.29;100597.88;5091270;28;19916;-82
2023/05/14 02:26:42;;;;;;;;;;;;;;;16.15;65.25;100586.47;5076500;28;19912;-82
2023/05/14 02:29:34;;;;;;;;;;;;;;;16.17;66.33;100589.66;5076530;28;19916;-82
2023/05/14 02:32:26;;;;;;;;;;;;;;;16.17;66.57;100583.38;5070088;28;19913;-81
2023/05/14 02:35:18;;;;;;;;;;;;;;;16.19;66.59;100579.13;5056450;28;19913;-81
2023/05/14 02:38:10;;;;;;;;;;;;;;;16.15;66.24;100583.72;5062674;28;19931;-82
2023/05/14 02:41:02;;;;;;;;;;;;;;;16.13;65.50;100582.50;5084132;28;19912;-81
2023/05/14 02:43:54;;;;;;;;;;;;;;;16.13;66.18;100580.53;5094554;28;19916;-82
2023/05/14 02:46:46;;;;;;;;;;;;;;;16.13;66.15;100577.81;5092947;28;19912;-81
2023/05/14 02:49:38;;;;;;;;;;;;;;;16.11;65.90;100573.81;5090657;28;19912;-82
2023/05/14 02:52:31;;;;;;;;;;;;;;;16.13;66.40;100566.03;5071509;28;19916;-82
2023/05/14 02:55:23;;;;;;;;;;;;;;;16.13;66.73;100569.56;5091283;28;19916;-82
2023/05/14 02:58:15;;;;;;;;;;;;;;;16.18;67.42;100557.53;5080378;28;19912;-81
2023/05/14 03:01:07;;;;;;;;;;;;;;;16.21;68.08;100560.34;5090519;28;19912;-82
2023/05/14 03:03:59;;;;;;;;;;;;;;;16.17;67.66;100553.97;5080973;28;19916;-81
2023/05/14 03:06:51;;;;;;;;;;;;;;;16.12;66.61;100559.75;5080136;28;19912;-81
2023/05/14 03:09:44;;;;;;;;;;;;;;;16.08;66.13;100552.59;5075729;28;19912;-82
2023/05/14 03:12:36;;;;;;;;;;;;;;;16.05;65.90;100556.81;5080494;28;19912;-82
2023/05/14 03:15:28;;;;;;;;;;;;;;;16.02;65.75;100552.06;5092042;28;19912;-81
2023/05/14 03:18:20;;;;;;;;;;;;;;;16.00;65.68;100548.88;5091354;28;19916;-82
2023/05/14 03:21:12;;;;;;;;;;;;;;;16.00;65.73;100554.34;5094952;28;19912;-81
2023/05/14 03:24:05;;;;;;;;;;;;;;;16.04;65.84;100547.03;5075963;28;19942;-81
2023/05/14 03:26:55;;;;;;;;;;;;;;;16.04;65.85;100536.06;5081463;28;19912;-82
2023/05/14 03:29:47;;;;;;;;;;;;;;;16.02;65.73;100541.09;5092941;28;19917;-82
2023/05/14 03:32:41;;;;;;;;;;;;;;;16.00;65.56;100540.63;5089072;28;19912;-81
2023/05/14 03:35:33;;;;;;;;;;;;;;;15.97;65.59;100543.31;5086353;28;19916;-81
2023/05/14 03:38:25;;;;;;;;;;;;;;;15.94;65.56;100541.28;5085912;28;19897;-81
2023/05/14 03:41:17;;;;;;;;;;;;;;;15.93;65.74;100542.44;5081236;28;19913;-80
2023/05/14 03:44:09;;;;;;;;;;;;;;;15.91;65.73;100544.72;5079464;28;19916;-80
2023/05/14 03:47:02;;;;;;;;;;;;;;;15.91;65.60;100547.47;5079863;28;19912;-81
2023/05/14 03:49:54;;;;;;;;;;;;;;;15.89;65.63;100545.09;5082508;28;19912;-81
2023/05/14 03:52:44;;;;;;;;;;;;;;;15.88;65.73;100538.00;5072244;28;19913;-82
2023/05/14 03:55:36;;;;;;;;;;;;;;;15.88;65.80;100548.19;5072421;28;20291;-80
2023/05/14 03:58:28;;;;;;;;;;;;;;;15.86;66.04;100547.72;5095809;28;19913;-80
2023/05/14 04:01:22;;;;;;;;;;;;;;;15.85;66.02;100549.66;5078695;28;19912;-81
2023/05/14 04:04:14;;;;;;;;;;;;;;;15.83;66.15;100543.75;5085929;28;19916;-82
2023/05/14 04:07:06;;;;;;;;;;;;;;;15.81;66.25;100544.09;5076673;28;20295;-81
2023/05/14 04:09:58;;;;;;;;;;;;;;;15.81;66.28;100555.06;5092510;28;19912;-81
2023/05/14 04:12:48;;;;;;;;;;;;;;;15.79;66.28;100540.94;5080540;28;19913;-81
2023/05/14 04:15:40;;;;;;;;;;;;;;;15.79;66.37;100542.88;5082928;28;19912;-82
2023/05/14 04:18:33;;;;;;;;;;;;;;;15.78;66.49;100541.28;5090726;28;19912;-81
2023/05/14 04:21:25;;;;;;;;;;;;;;;15.76;66.54;100549.84;5089954;28;19912;-82
2023/05/14 04:24:17;;;;;;;;;;;;;;;15.77;66.76;100547.91;5089358;28;19916;-81
2023/05/14 04:27:05;;;;;;;;;;;;;;;15.76;67.02;100543.56;5076289;28;20383;-81
2023/05/14 04:29:57;;;;;;;;;;;;;;;15.74;66.97;100540.41;5089846;28;19924;-81
2023/05/14 04:32:49;;;;;;;;;;;;;;;15.73;66.95;100541.56;5088019;28;19912;-81
2023/05/14 04:35:41;;;;;;;;;;;;;;;15.74;66.75;100535.72;5082706;28;19913;-82
2023/05/14 04:38:33;;;;;;;;;;;;;;;15.74;66.57;100549.44;5089045;28;19912;-82
2023/05/14 04:41:26;;;;;;;;;;;;;;;15.73;66.58;100544.28;5079216;28;19912;-82
2023/05/14 04:44:18;;;;;;;;;;;;;;;15.73;66.64;100556.06;5079785;28;19916;-82
2023/05/14 04:47:10;;;;;;;;;;;;;;;15.74;66.55;100552.19;5079086;28;19912;-82
2023/05/14 04:50:02;;;;;;;;;;;;;;;15.77;66.73;100556.94;5094095;28;19912;-82
2023/05/14 04:52:54;;;;;;;;;;;;;;;15.77;66.68;100564.38;5102763;28;19916;-82
2023/05/14 04:55:46;;;;;;;;;;;;;;;15.76;66.65;100560.03;5078466;28;19912;-81
2023/05/14 04:58:38;;;;;;;;;;;;;;;15.73;66.79;100558.81;5078692;28;19913;-81
2023/05/14 05:01:30;;;;;;;;;;;;;;;15.73;66.88;100564.28;5074547;28;19912;-81
2023/05/14 05:04:22;;;;;;;;;;;;;;;15.70;67.30;100570.47;5084654;28;19917;-81
2023/05/14 05:07:14;;;;;;;;;;;;;;;15.69;67.58;100568.09;5093115;28;19912;-80
2023/05/14 05:10:01;;;;;;;;;;;;;;;15.68;67.76;100564.53;5089168;28;19913;-80
2023/05/14 05:12:53;;;;;;;;;;;;;;;15.67;68.33;100564.88;5078676;28;19913;-80
2023/05/14 05:15:45;;;;;;;;;;;;;;;15.68;68.37;100571.97;5095810;28;19916;-81
2023/05/14 05:18:37;;;;;;;;;;;;;;;15.69;68.73;100566.16;5068986;28;19916;-81
2023/05/14 05:21:30;;;;;;;;;;;;;;;15.72;69.33;100570.13;5082267;28;19911;-80
2023/05/14 05:24:19;;;;;;;;;;;;;;;15.72;69.56;100570.91;5089104;28;19921;-80
2023/05/14 05:27:11;;;;;;;;;;;;;;;15.72;69.33;100576.41;5087129;28;19917;-81
2023/05/14 05:30:03;;;;;;;;;;;;;;;15.74;69.23;100570.56;5094078;28;19913;-81
2023/05/14 05:32:55;;;;;;;;;;;;;;;15.73;69.22;100558.81;5079961;28;19908;-81
2023/05/14 05:35:47;;;;;;;;;;;;;;;15.72;68.64;100559.94;5077249;28;19916;-82
2023/05/14 05:38:39;;;;;;;;;;;;;;;15.72;68.38;100561.88;5079185;28;19912;-81
2023/05/14 05:41:32;;;;;;;;;;;;;;;15.70;68.06;100558.69;5068745;28;19916;-81
2023/05/14 05:44:24;;;;;;;;;;;;;;;15.69;67.71;100554.38;5079275;28;20116;-81
2023/05/14 05:47:16;;;;;;;;;;;;;;;15.69;67.70;100559.88;5075732;28;19912;-80
2023/05/14 05:50:05;;;;;;;;;;;;;;;15.65;67.61;100565.25;5089912;28;20238;-81
2023/05/14 05:52:57;;;;;;;;;;;;;;;15.67;67.62;100562.16;5078628;28;19912;-80
2023/05/14 05:55:50;;;;;;;;;;;;;;;15.66;67.61;100560.56;5090640;28;19912;-81
2023/05/14 05:58:39;;;;;;;;;;;;;;;15.68;67.79;100561.00;5090821;28;19912;-81
2023/05/14 06:01:31;;;;;;;;;;;;;;;15.71;68.58;100565.78;5084234;28;19915;-81
2023/05/14 06:04:21;;;;;;;;;;;;;;;15.72;69.27;100559.16;5099449;28;19920;-81
2023/05/14 06:07:13;;;;;;;;;;;;;;;15.72;70.01;100559.16;5084414;28;19912;-80
2023/05/14 06:10:05;;;;;;;;;;;;;;;15.75;70.48;100559.22;5093890;28;19913;-81
2023/05/14 06:12:57;;;;;;;;;;;;;;;15.74;70.75;100565.88;5092367;28;20410;-81
2023/05/14 06:15:49;;;;;;;;;;;;;;;15.77;70.78;100564.38;5095609;28;19912;-81
2023/05/14 06:18:39;;;;;;;;;;;;;;;15.78;71.21;100563.22;5091694;28;19913;-82
2023/05/14 06:21:28;;;;;;;;;;;;;;;15.79;71.44;100568.38;5089888;28;19912;-82
2023/05/14 06:24:20;;;;;;;;;;;;;;;15.80;71.69;100564.44;5076969;28;19912;-82
2023/05/14 06:27:11;;;;;;;;;;;;;;;15.79;71.45;100557.41;5098885;28;19912;-82
2023/05/14 06:30:03;;;;;;;;;;;;;;;15.81;71.30;100554.28;5109557;28;19916;-82
2023/05/14 06:32:55;;;;;;;;;;;;;;;15.85;71.43;100562.63;5092237;28;19913;-82
2023/05/14 06:35:44;;;;;;;;;;;;;;;15.87;71.52;100555.59;5078244;28;19912;-79
2023/05/14 06:38:37;;;;;;;;;;;;;;;15.85;71.24;100557.13;5068556;28;19913;-79
2023/05/14 06:41:29;;;;;;;;;;;;;;;15.82;70.42;100555.88;5058938;28;19913;-79
2023/05/14 06:44:18;;;;;;;;;;;;;;;15.80;69.78;100555.41;5066227;28;20283;-78
2023/05/14 06:47:10;;;;;;;;;;;;;;;15.81;69.03;100551.53;5083174;28;19912;-78
2023/05/14 06:49:59;;;;;;;;;;;;;;;15.79;68.55;100551.91;5079446;28;19924;-78
2023/05/14 06:52:51;;;;;;;;;;;;;;;15.81;68.21;100546.06;5078961;28;19917;-79
2023/05/14 06:55:44;;;;;;;;;;;;;;;15.79;68.05;100543.69;5065251;28;19912;-79
2023/05/14 06:58:33;;;;;;;;;;;;;;;15.80;67.75;100533.47;5079910;28;19912;-79
2023/05/14 07:01:25;;;;;;;;;;;;;;;15.81;67.56;100540.56;5081308;28;19912;-78
2023/05/14 07:04:17;;;;;;;;;;;;;;;15.86;68.15;100543.03;5076516;28;19912;-79
2023/05/14 07:07:09;;;;;;;;;;;;;;;15.87;68.22;100539.16;5079639;28;19912;-79
2023/05/14 07:09:59;;;;;;;;;;;;;;;15.86;67.95;100543.03;5079934;28;19916;-79
2023/05/14 07:12:51;;;;;;;;;;;;;;;15.84;67.72;100545.38;5077494;28;19912;-78
2023/05/14 07:15:42;;;;;;;;;;;;;;;15.84;67.36;100537.13;5073559;28;19913;-79
2023/05/14 07:18:32;;;;;;;;;;;;;;;15.86;67.06;100543.03;5079761;28;19913;-78
2023/05/14 07:21:24;;;;;;;;;;;;;;;15.85;66.91;100535.97;5078747;28;20396;-78
2023/05/14 07:24:15;;;;;;;;;;;;;;;15.87;66.93;100533.66;5066731;28;19920;-78
2023/05/14 07:27:07;;;;;;;;;;;;;;;15.87;66.81;100528.19;5079469;28;20325;-78
2023/05/14 07:29:59;;;;;;;;;;;;;;;15.89;66.69;100525.91;5079377;28;19912;-78
2023/05/14 07:32:51;;;;;;;;;;;;;;;15.90;66.62;100527.47;5063229;28;19916;-78
2023/05/14 07:35:43;;;;;;;;;;;;;;;15.91;66.68;100529.06;5072920;28;19912;-78
2023/05/14 07:38:35;;;;;;;;;;;;;;;15.95;66.87;100524.44;5071466;28;19912;-77
2023/05/14 07:41:27;;;;;;;;;;;;;;;15.97;66.93;100521.38;5061796;28;19913;-77
2023/05/14 07:44:19;;;;;;;;;;;;;;;15.98;66.97;100515.53;5072208;28;19913;-77
2023/05/14 07:47:11;;;;;;;;;;;;;;;15.99;67.10;100517.13;5072246;28;19916;-77
2023/05/14 07:50:03;;;;;;;;;;;;;;;16.01;66.98;100511.25;5072578;28;19912;-77
2023/05/14 07:52:54;;;;;;;;;;;;;;;15.98;67.02;100509.25;5055940;28;19913;-77
2023/05/14 07:55:46;;;;;;;;;;;;;;;15.98;66.96;100503.75;5067486;28;19912;-77
2023/05/14 07:58:38;;;;;;;;;;;;;;;15.98;66.88;100506.50;5072041;28;19912;-77
2023/05/14 08:01:30;;;;;;;;;;;;;;;15.99;66.81;100505.34;5068111;28;19913;-77
2023/05/14 08:04:22;;;;;;;;;;;;;;;15.99;66.86;100502.63;5110415;23;19928;-80
2023/05/14 08:07:13;;;;;;;;;;;;;;;15.98;66.89;100501.81;5057584;28;19924;-80
2023/05/14 08:10:06;;;;;;;;;;;;;;;16.01;66.87;100495.59;5055215;28;19927;-81
2023/05/14 08:12:55;;;;;;;;;;;;;;;16.05;66.97;100495.72;5056176;28;19912;-80
2023/05/14 08:15:47;;;;;;;;;;;;;;;16.06;67.21;100492.59;5060566;28;19912;-80
2023/05/14 08:18:39;;;;;;;;;;;;;;;16.06;67.43;100487.09;5030455;28;19920;-80
2023/05/14 08:21:31;;;;;;;;;;;;;;;16.07;67.30;100488.69;5048997;28;19913;-80
2023/05/14 08:24:23;;;;;;;;;;;;;;;16.08;67.29;100493.03;5033735;28;19912;-80
2023/05/14 08:27:15;;;;;;;;;;;;;;;16.10;67.41;100485.22;5025705;28;19917;-81
2023/05/14 08:30:05;;;;;;;;;;;;;;;16.12;67.66;100480.19;5027572;28;19916;-82
2023/05/14 08:32:57;;;;;;;;;;;;;;;16.13;67.72;100481.78;5031887;28;20395;-81
2023/05/14 08:35:49;;;;;;;;;;;;;;;16.14;67.59;100477.91;5024717;28;20288;-82
2023/05/14 08:38:41;;;;;;;;;;;;;;;16.14;67.53;100483.38;5036120;28;19913;-79
2023/05/14 08:41:33;;;;;;;;;;;;;;;16.15;67.54;100484.94;5017337;28;19913;-79
2023/05/14 08:44:30;;;;;;;;;;;;;;;16.14;67.47;100483.38;5036931;28;19916;-80
2023/05/14 08:47:22;;;;;;;;;;;;;;;16.14;67.45;100483.38;5041576;28;19917;-80
2023/05/14 08:50:14;;;;;;;;;;;;;;;16.14;67.45;100477.91;5056081;28;19913;-80
2023/05/14 08:53:06;;;;;;;;;;;;;;;16.12;67.46;100477.44;5027377;28;19912;-79
2023/05/14 08:55:58;;;;;;;;;;;;;;;16.12;67.37;100480.19;5037226;28;19912;-81
2023/05/14 08:58:45;;;;;;;;;;;;;;;16.10;67.41;100473.47;5033716;28;19912;-79
2023/05/14 09:01:36;;;;;;;;;;;;;;;16.11;67.51;100477.78;5044364;28;20303;-80
2023/05/14 09:04:28;;;;;;;;;;;;;;;16.09;67.63;100480.91;5036736;28;19916;-79
2023/05/14 09:07:18;;;;;;;;;;;;;;;16.10;67.56;100477.00;5025270;28;19916;-82
2023/05/14 09:10:08;;;;;;;;;;;;;;;14.79;76.42;100472.88;5060793;28;19913;-84
2023/05/14 09:12:57;;;;;;;;;;;;;;;14.58;78.74;100478.56;5036415;28;20376;-80
2023/05/14 09:15:50;;;;;;;;;;;;;;;14.49;79.33;100478.72;5055810;28;19927;-80
2023/05/14 09:18:44;;;;;;;;;;;;;;;14.60;79.40;100481.75;5027529;28;19912;-77
2023/05/14 09:21:34;;;;;;;;;;;;;;;14.37;80.07;100477.97;5039827;28;19912;-81
2023/05/14 09:24:29;;;;;;;;;;;;;;;14.22;80.43;100481.41;5026001;28;19912;-82
2023/05/14 09:27:24;;;;;;;;;;;;;;;14.23;81.39;100474.75;5030099;28;19917;-80
2023/05/14 09:30:14;;;;;;;;;;;;;;;14.04;81.90;100483.56;5037632;28;19913;-79
2023/05/14 09:33:06;;;;;;;;;;;;;;;14.15;82.90;100481.97;5038593;28;19918;-81
2023/05/14 09:35:57;;;;;;;;;;;;;;;14.71;81.61;100476.59;5039292;28;19912;-79
2023/05/14 09:38:46;;;;;;;;;;;;;;;15.46;78.82;100480.16;5048171;28;20312;-81
2023/05/14 09:41:38;;;;;;;;;;;;;;;15.97;75.96;100472.78;5058451;28;20382;-81
2023/05/14 09:44:30;;;;;;;;;;;;;;;16.32;74.27;100471.97;5051994;28;19913;-79
2023/05/14 09:47:23;;;;;;;;;;;;;;;15.96;74.27;100464.91;5040134;28;19920;-83
2023/05/14 09:50:15;;;;;;;;;;;;;;;16.32;73.45;100453.56;5037565;28;19935;-83
2023/05/14 09:53:05;;;;;;;;;;;;;;;16.72;72.08;100463.41;5042822;28;19917;-82
2023/05/14 09:55:57;;;;;;;;;;;;;;;16.67;71.83;100459.00;5065520;28;20283;-83
2023/05/14 09:58:49;;;;;;;;;;;;;;;16.78;71.52;100448.25;5044614;28;19913;-83
2023/05/14 10:01:39;;;;;;;;;;;;;;;16.74;71.98;100450.94;5048554;28;19917;-82
2023/05/14 10:04:28;;;;;;;;;;;;;;;16.76;71.26;100450.56;5024137;28;19916;-81
2023/05/14 10:07:22;;;;;;;;;;;;;;;16.55;72.12;100434.44;5042007;28;19917;-83
2023/05/14 10:10:16;;;;;;;;;;;;;;;16.90;70.92;100439.84;5027599;28;19916;-81
2023/05/14 10:13:09;;;;;;;;;;;;;;;17.14;70.75;100441.44;5041654;28;20303;-80
2023/05/14 10:16:02;;;;;;;;;;;;;;;17.19;70.66;100430.16;5039659;28;20378;-81
2023/05/14 10:18:53;;;;;;;;;;;;;;;17.23;69.84;100431.81;5043970;28;19916;-82
2023/05/14 10:21:48;;;;;;;;;;;;;;;17.60;67.83;100436.75;5050555;28;19913;-81
2023/05/14 10:24:40;;;;;;;;;;;;;;;17.83;67.61;100434.75;5053984;28;19912;-78
2023/05/14 10:27:30;;;;;;;;;;;;;;;18.04;66.54;100437.00;5045780;28;19916;-81
2023/05/14 10:30:22;;;;;;;;;;;;;;;18.03;66.20;100433.47;5044886;28;19916;-80
2023/05/14 10:33:17;;;;;;;;;;;;;;;17.91;65.51;100426.25;5070117;28;20381;-80
2023/05/14 10:36:09;;;;;;;;;;;;;;;18.10;65.92;100427.25;5022552;28;19916;-79
2023/05/14 10:38:58;;;;;;;;;;;;;;;18.19;65.22;100428.56;5039397;28;19913;-80
2023/05/14 10:41:50;;;;;;;;;;;;;;;18.51;64.56;100428.19;5040687;28;19912;-81
2023/05/14 10:44:52;;;;;;;;;;;;;;;18.65;63.85;100426.41;5026157;28;19924;-80
2023/05/14 10:47:46;;;;;;;;;;;;;;;18.79;63.39;100426.56;5019050;28;19920;-81
2023/05/14 10:50:38;;;;;;;;;;;;;;;18.69;63.69;100413.47;5029301;28;19912;-81
2023/05/14 10:53:39;;;;;;;;;;;;;;;18.73;63.03;100413.53;5022850;28;19913;-81
2023/05/14 10:56:29;;;;;;;;;;;;;;;18.94;62.56;100411.00;5025912;28;19913;-81
2023/05/14 10:59:21;;;;;;;;;;;;;;;19.04;61.43;100415.00;5048599;28;19913;-82
2023/05/14 11:02:43;;;;;;;;;;;;;;;19.19;60.55;100413.97;5028027;28;20375;-81
2023/05/14 11:05:35;;;;;;;;;;;;;;;19.46;60.13;100409.88;5028946;28;19916;-80
2023/05/14 11:08:28;;;;;;;;;;;;;;;19.60;58.67;100398.19;5038694;28;19913;-80
2023/05/14 11:11:19;;;;;;;;;;;;;;;19.48;58.72;100396.50;5038828;28;19916;-81
2023/05/14 11:14:09;;;;;;;;;;;;;;;19.47;58.85;100394.13;5072587;28;20306;-81
2023/05/14 11:17:01;;;;;;;;;;;;;;;19.72;58.14;100394.28;5042785;28;19913;-81
2023/05/14 11:19:53;;;;;;;;;;;;;;;19.79;57.95;100394.34;5040844;28;19913;-79
2023/05/14 11:23:02;;;;;;;;;;;;;;;19.89;57.17;100399.94;5040242;28;19913;-81
2023/05/14 11:25:54;;;;;;;;;;;;;;;20.19;56.14;100394.16;5044800;28;19920;-80
2023/05/14 11:28:46;;;;;;;;;;;;;;;20.39;55.36;100389.94;5037921;28;19912;-80
2023/05/14 11:31:35;;;;;;;;;;;;;;;20.45;54.80;100388.38;5033834;28;19913;-82
2023/05/14 11:34:27;;;;;;;;;;;;;;;20.60;53.80;100388.41;5029836;28;19913;-81
2023/05/14 11:37:19;;;;;;;;;;;;;;;20.70;53.25;100376.59;5027023;28;19917;-81
2023/05/14 11:40:12;;;;;;;;;;;;;;;20.58;54.22;100379.72;5037472;28;19913;-81
2023/05/14 11:43:04;;;;;;;;;;;;;;;20.24;55.05;100381.94;5029399;28;19920;-84
2023/05/14 11:45:57;;;;;;;;;;;;;;;20.11;54.94;100378.75;5051754;28;19916;-81
2023/05/14 11:48:44;;;;;;;;;;;;;;;19.99;55.21;100377.13;5022514;28;20839;-80
2023/05/14 11:51:35;;;;;;;;;;;;;;;19.92;55.50;100374.31;5020716;28;19912;-80
2023/05/14 11:54:26;;;;;;;;;;;;;;;18.39;56.84;100366.69;5029726;28;19913;-78
2023/05/14 11:57:19;;;;;;;;;;;;;;;17.12;61.14;100366.84;5029486;28;19913;-79
2023/05/14 12:00:07;;;;;;;;;;;;;;;17.21;61.85;100350.91;5055443;28;19913;-79
2023/05/14 12:02:59;;;;;;;;;;;;;;;16.62;63.84;100355.78;5043420;28;20292;-78
2023/05/14 12:06:01;;;;;;;;;;;;;;;16.74;61.46;100365.00;5051426;28;19916;-78
2023/05/14 12:08:53;;;;;;;;;;;;;;;16.42;60.04;100356.94;5046542;28;19921;-78
2023/05/14 12:11:45;;;;;;;;;;;;;;;16.75;58.06;100352.88;5055575;28;19912;-79
2023/05/14 12:14:38;;;;;;;;;;;;;;;16.82;59.49;100353.78;5053442;28;19913;-77
2023/05/14 12:17:22;;;;;;;;;;;;;;;16.69;59.85;100349.63;5037722;28;20030;-77
2023/05/14 12:20:14;;;;;;;;;;;;;;;16.46;58.74;100343.28;5058979;28;19912;-80
2023/05/14 12:23:06;;;;;;;;;;;;;;;16.52;58.97;100339.88;5055631;28;19912;-82
2023/05/14 12:26:02;;;;;;;;;;;;;;;16.70;58.23;100336.69;5049563;28;19916;-80
2023/05/14 12:28:57;;;;;;;;;;;;;;;16.75;58.22;100337.19;5056599;28;19913;-80
2023/05/14 12:31:49;;;;;;;;;;;;;;;16.76;55.73;100327.78;5042600;28;19912;-79
2023/05/14 12:34:41;;;;;;;;;;;;;;;16.67;56.96;100325.28;5039385;28;19921;-80
2023/05/14 12:37:30;;;;;;;;;;;;;;;16.77;57.50;100329.38;5047219;28;20307;-81
2023/05/14 12:40:22;;;;;;;;;;;;;;;16.76;57.96;100338.75;5059031;28;19913;-81
2023/05/14 12:43:14;;;;;;;;;;;;;;;16.88;58.16;100344.06;5057216;28;19913;-78
2023/05/14 12:46:06;;;;;;;;;;;;;;;16.99;57.30;100336.81;5054109;28;19921;-78
2023/05/14 12:48:58;;;;;;;;;;;;;;;16.89;57.92;100340.19;5041812;28;19913;-79
2023/05/14 12:51:50;;;;;;;;;;;;;;;16.85;58.21;100336.59;5058513;28;19917;-80
2023/05/14 12:54:42;;;;;;;;;;;;;;;16.76;59.18;100344.25;5053749;28;19913;-80
2023/05/14 12:57:33;;;;;;;;;;;;;;;16.81;60.76;100346.69;5065491;28;19916;-82
2023/05/14 13:00:25;;;;;;;;;;;;;;;17.02;60.54;100347.06;5056345;28;19913;-81
2023/05/14 13:03:17;;;;;;;;;;;;;;;16.77;59.46;100345.03;5044347;28;19913;-80
2023/05/14 13:06:09;;;;;;;;;;;;;;;16.66;60.54;100337.41;5044279;28;19917;-81
2023/05/14 13:08:59;;;;;;;;;;;;;;;16.51;63.13;100329.25;5063069;28;19912;-80
2023/05/14 13:11:46;;;;;;;;;;;;;;;15.96;64.64;100334.06;5048286;28;19916;-79
2023/05/14 13:14:35;;;;;;;;;;;;;;;16.12;65.42;100334.00;5060803;28;19912;-80
2023/05/14 13:17:27;;;;;;;;;;;;;;;16.19;66.45;100336.91;5065037;28;19913;-81
2023/05/14 13:20:19;;;;;;;;;;;;;;;16.04;67.60;100332.28;5053316;28;20376;-77
2023/05/14 13:23:11;;;;;;;;;;;;;;;16.04;69.65;100319.38;5044038;28;19913;-77
2023/05/14 13:26:01;;;;;;;;;;;;;;;16.06;68.90;100322.53;5032748;28;19917;-79
2023/05/14 13:28:53;;;;;;;;;;;;;;;16.14;67.36;100324.28;5061293;28;19912;-79
2023/05/14 13:31:45;;;;;;;;;;;;;;;16.31;66.90;100311.22;5054632;28;19913;-78
2023/05/14 13:34:37;;;;;;;;;;;;;;;16.41;66.82;100310.63;5050949;28;19913;-79
2023/05/14 13:37:25;;;;;;;;;;;;;;;16.46;66.47;100313.09;5052224;28;20375;-78
2023/05/14 13:40:17;;;;;;;;;;;;;;;16.41;66.79;100305.94;5057342;28;19913;-78
2023/05/14 13:43:07;;;;;;;;;;;;;;;16.46;65.42;100299.34;5044045;28;19913;-80
2023/05/14 13:45:59;;;;;;;;;;;;;;;16.45;65.52;100303.28;5043046;28;19913;-79
2023/05/14 13:48:51;;;;;;;;;;;;;;;16.32;65.59;100304.59;5049884;28;19912;-80
2023/05/14 13:51:43;;;;;;;;;;;;;;;15.94;66.46;100300.75;5058002;28;19913;-80
2023/05/14 13:54:32;;;;;;;;;;;;;;;16.00;68.28;100296.53;5049756;28;19912;-80
2023/05/14 13:57:24;;;;;;;;;;;;;;;15.72;67.69;100288.53;5037303;28;19913;-77
2023/05/14 14:00:15;;;;;;;;;;;;;;;15.64;68.10;100291.50;5052826;28;19914;-79
2023/05/14 14:03:07;;;;;;;;;;;;;;;15.68;69.32;100295.09;5060009;28;19912;-79
2023/05/14 14:05:54;;;;;;;;;;;;;;;15.53;69.03;100298.69;5061973;28;19916;-80
2023/05/14 14:08:46;;;;;;;;;;;;;;;15.55;68.75;100291.69;5056941;28;19921;-81
2023/05/14 14:11:38;;;;;;;;;;;;;;;15.53;69.99;100293.22;5051482;28;20372;-80
2023/05/14 14:14:34;;;;;;;;;;;;;;;15.68;71.76;100286.88;5042414;28;19917;-80
2023/05/14 14:17:23;;;;;;;;;;;;;;;15.66;72.92;100284.47;5054338;28;19913;-80
2023/05/14 14:20:13;;;;;;;;;;;;;;;15.56;72.63;100284.25;5038108;28;20300;-80
2023/05/14 14:23:05;;;;;;;;;;;;;;;15.52;74.52;100286.94;5061164;28;19913;-81
2023/05/14 14:25:57;;;;;;;;;;;;;;;15.52;74.54;100280.66;5061503;28;19916;-81
2023/05/14 14:28:47;;;;;;;;;;;;;;;15.60;74.83;100285.13;5066962;28;19912;-81
2023/05/14 14:31:38;;;;;;;;;;;;;;;15.46;72.58;100282.84;5062260;28;20291;-80
2023/05/14 14:34:30;;;;;;;;;;;;;;;15.52;73.70;100281.44;5050495;28;19917;-80
2023/05/14 14:37:33;;;;;;;;;;;;;;;15.59;74.23;100278.06;5061177;28;19913;-80
2023/05/14 14:40:22;;;;;;;;;;;;;;;15.46;74.87;100282.06;5061248;28;19909;-81